sensor_id;sensor_type;location;lat;lon;timestamp;P1;durP1;ratioP1;P2;durP2;ratioP2
38399;SDS011;24180;42.676;23.320;2023-12-22T00:02:06;19.63;;;10.10;;
38399;SDS011;24180;42.676;23.320;2023-12-22T00:04:32;22.33;;;9.90;;
38399;SDS011;24180;42.676;23.320;2023-12-22T00:06:57;21.17;;;9.95;;
38399;SDS011;24180;42.676;23.320;2023-12-22T00:09:23;18.60;;;9.32;;
38399;SDS011;24180;42.676;23.320;2023-12-22T00:11:48;21.95;;;10.57;;
38399;SDS011;24180;42.676;23.320;2023-12-22T00:14:14;19.52;;;10.93;;
38399;SDS011;24180;42.676;23.320;2023-12-22T00:16:39;19.92;;;10.30;;
38399;SDS011;24180;42.676;23.320;2023-12-22T00:19:05;20.10;;;10.02;;
38399;SDS011;24180;42.676;23.320;2023-12-22T00:21:30;16.15;;;10.27;;
38399;SDS011;24180;42.676;23.320;2023-12-22T00:23:57;19.48;;;10.27;;
38399;SDS011;24180;42.676;23.320;2023-12-22T00:26:22;23.65;;;10.68;;
38399;SDS011;24180;42.676;23.320;2023-12-22T00:28:48;17.70;;;9.15;;
38399;SDS011;24180;42.676;23.320;2023-12-22T00:31:13;22.92;;;11.82;;
38399;SDS011;24180;42.676;23.320;2023-12-22T00:33:39;19.27;;;10.18;;
38399;SDS011;24180;42.676;23.320;2023-12-22T00:36:05;15.25;;;8.80;;
38399;SDS011;24180;42.676;23.320;2023-12-22T00:38:30;20.45;;;11.02;;
38399;SDS011;24180;42.676;23.320;2023-12-22T00:40:56;16.20;;;8.88;;
38399;SDS011;24180;42.676;23.320;2023-12-22T00:43:21;18.33;;;9.57;;
38399;SDS011;24180;42.676;23.320;2023-12-22T00:45:47;20.83;;;9.98;;
38399;SDS011;24180;42.676;23.320;2023-12-22T00:48:12;17.65;;;9.45;;
38399;SDS011;24180;42.676;23.320;2023-12-22T00:50:38;21.23;;;8.68;;
38399;SDS011;24180;42.676;23.320;2023-12-22T00:53:03;16.25;;;8.95;;
38399;SDS011;24180;42.676;23.320;2023-12-22T00:55:29;23.92;;;9.57;;
38399;SDS011;24180;42.676;23.320;2023-12-22T00:57:54;14.70;;;8.30;;
38399;SDS011;24180;42.676;23.320;2023-12-22T01:00:20;17.58;;;9.05;;
38399;SDS011;24180;42.676;23.320;2023-12-22T01:02:45;18.33;;;8.95;;
38399;SDS011;24180;42.676;23.320;2023-12-22T01:05:11;16.88;;;9.52;;
38399;SDS011;24180;42.676;23.320;2023-12-22T01:07:36;16.60;;;8.15;;
38399;SDS011;24180;42.676;23.320;2023-12-22T01:10:01;17.25;;;8.45;;
38399;SDS011;24180;42.676;23.320;2023-12-22T01:12:29;21.00;;;10.52;;
38399;SDS011;24180;42.676;23.320;2023-12-22T01:14:55;24.20;;;11.13;;
38399;SDS011;24180;42.676;23.320;2023-12-22T01:17:21;20.83;;;9.85;;
38399;SDS011;24180;42.676;23.320;2023-12-22T01:19:47;19.52;;;9.27;;
38399;SDS011;24180;42.676;23.320;2023-12-22T01:22:12;21.35;;;9.80;;
38399;SDS011;24180;42.676;23.320;2023-12-22T01:24:38;18.67;;;9.18;;
38399;SDS011;24180;42.676;23.320;2023-12-22T01:27:06;26.17;;;9.60;;
38399;SDS011;24180;42.676;23.320;2023-12-22T01:29:32;21.23;;;10.30;;
38399;SDS011;24180;42.676;23.320;2023-12-22T01:31:57;17.63;;;9.38;;
38399;SDS011;24180;42.676;23.320;2023-12-22T01:34:23;19.73;;;9.82;;
38399;SDS011;24180;42.676;23.320;2023-12-22T01:36:48;21.27;;;10.50;;
38399;SDS011;24180;42.676;23.320;2023-12-22T01:39:15;18.08;;;9.30;;
38399;SDS011;24180;42.676;23.320;2023-12-22T01:41:40;18.73;;;9.82;;
38399;SDS011;24180;42.676;23.320;2023-12-22T01:44:06;16.48;;;9.27;;
38399;SDS011;24180;42.676;23.320;2023-12-22T01:46:32;17.70;;;8.93;;
38399;SDS011;24180;42.676;23.320;2023-12-22T01:48:59;16.17;;;8.75;;
38399;SDS011;24180;42.676;23.320;2023-12-22T01:51:26;21.27;;;9.45;;
38399;SDS011;24180;42.676;23.320;2023-12-22T01:53:53;18.60;;;12.40;;
38399;SDS011;24180;42.676;23.320;2023-12-22T01:56:19;16.38;;;8.82;;
38399;SDS011;24180;42.676;23.320;2023-12-22T01:58:45;15.10;;;8.45;;
38399;SDS011;24180;42.676;23.320;2023-12-22T02:01:10;15.48;;;8.98;;
38399;SDS011;24180;42.676;23.320;2023-12-22T02:03:36;14.10;;;7.10;;
38399;SDS011;24180;42.676;23.320;2023-12-22T02:06:03;12.73;;;9.18;;
38399;SDS011;24180;42.676;23.320;2023-12-22T02:08:31;11.82;;;7.15;;
38399;SDS011;24180;42.676;23.320;2023-12-22T02:10:58;16.23;;;7.40;;
38399;SDS011;24180;42.676;23.320;2023-12-22T02:13:23;16.23;;;8.25;;
38399;SDS011;24180;42.676;23.320;2023-12-22T02:15:50;13.95;;;8.57;;
38399;SDS011;24180;42.676;23.320;2023-12-22T02:18:26;17.20;;;8.38;;
38399;SDS011;24180;42.676;23.320;2023-12-22T02:20:58;15.32;;;7.93;;
38399;SDS011;24180;42.676;23.320;2023-12-22T02:23:23;14.68;;;8.25;;
38399;SDS011;24180;42.676;23.320;2023-12-22T02:25:49;17.23;;;8.13;;
38399;SDS011;24180;42.676;23.320;2023-12-22T02:28:21;13.48;;;8.38;;
38399;SDS011;24180;42.676;23.320;2023-12-22T02:31:05;10.32;;;7.72;;
38399;SDS011;24180;42.676;23.320;2023-12-22T02:33:41;11.68;;;6.90;;
38399;SDS011;24180;42.676;23.320;2023-12-22T02:36:07;16.75;;;8.35;;
38399;SDS011;24180;42.676;23.320;2023-12-22T02:38:34;9.18;;;6.53;;
38399;SDS011;24180;42.676;23.320;2023-12-22T02:41:01;14.38;;;8.18;;
38399;SDS011;24180;42.676;23.320;2023-12-22T02:43:28;14.02;;;8.13;;
38399;SDS011;24180;42.676;23.320;2023-12-22T02:45:54;10.68;;;8.00;;
38399;SDS011;24180;42.676;23.320;2023-12-22T02:48:19;12.95;;;7.22;;
38399;SDS011;24180;42.676;23.320;2023-12-22T02:50:45;14.82;;;8.55;;
38399;SDS011;24180;42.676;23.320;2023-12-22T02:53:10;17.95;;;7.10;;
38399;SDS011;24180;42.676;23.320;2023-12-22T02:55:36;18.38;;;8.35;;
38399;SDS011;24180;42.676;23.320;2023-12-22T02:58:01;11.90;;;7.60;;
38399;SDS011;24180;42.676;23.320;2023-12-22T03:00:27;16.67;;;7.95;;
38399;SDS011;24180;42.676;23.320;2023-12-22T03:02:52;15.88;;;7.82;;
38399;SDS011;24180;42.676;23.320;2023-12-22T03:05:18;13.32;;;7.47;;
38399;SDS011;24180;42.676;23.320;2023-12-22T03:07:43;14.13;;;7.90;;
38399;SDS011;24180;42.676;23.320;2023-12-22T03:10:08;17.33;;;8.63;;
38399;SDS011;24180;42.676;23.320;2023-12-22T03:12:34;10.30;;;7.18;;
38399;SDS011;24180;42.676;23.320;2023-12-22T03:14:59;12.95;;;8.38;;
38399;SDS011;24180;42.676;23.320;2023-12-22T03:17:25;13.13;;;7.55;;
38399;SDS011;24180;42.676;23.320;2023-12-22T03:19:50;17.08;;;7.70;;
38399;SDS011;24180;42.676;23.320;2023-12-22T03:22:16;18.95;;;8.32;;
38399;SDS011;24180;42.676;23.320;2023-12-22T03:24:41;16.52;;;8.10;;
38399;SDS011;24180;42.676;23.320;2023-12-22T03:27:07;13.27;;;8.57;;
38399;SDS011;24180;42.676;23.320;2023-12-22T03:29:32;16.25;;;8.30;;
38399;SDS011;24180;42.676;23.320;2023-12-22T03:31:58;15.52;;;8.38;;
38399;SDS011;24180;42.676;23.320;2023-12-22T03:34:23;14.73;;;8.70;;
38399;SDS011;24180;42.676;23.320;2023-12-22T03:36:48;17.65;;;8.75;;
38399;SDS011;24180;42.676;23.320;2023-12-22T03:39:14;19.35;;;10.05;;
38399;SDS011;24180;42.676;23.320;2023-12-22T03:41:40;14.02;;;7.85;;
38399;SDS011;24180;42.676;23.320;2023-12-22T03:44:06;16.33;;;9.35;;
38399;SDS011;24180;42.676;23.320;2023-12-22T03:46:32;17.13;;;8.20;;
38399;SDS011;24180;42.676;23.320;2023-12-22T03:48:57;15.63;;;8.55;;
38399;SDS011;24180;42.676;23.320;2023-12-22T03:51:23;11.85;;;8.10;;
38399;SDS011;24180;42.676;23.320;2023-12-22T03:53:48;19.85;;;9.48;;
38399;SDS011;24180;42.676;23.320;2023-12-22T03:56:14;15.82;;;7.45;;
38399;SDS011;24180;42.676;23.320;2023-12-22T03:58:40;20.35;;;9.15;;
38399;SDS011;24180;42.676;23.320;2023-12-22T04:01:05;16.48;;;8.98;;
38399;SDS011;24180;42.676;23.320;2023-12-22T04:05:58;19.25;;;8.98;;
38399;SDS011;24180;42.676;23.320;2023-12-22T04:08:27;17.35;;;8.38;;
38399;SDS011;24180;42.676;23.320;2023-12-22T04:10:52;16.05;;;9.05;;
38399;SDS011;24180;42.676;23.320;2023-12-22T04:13:18;17.27;;;9.20;;
38399;SDS011;24180;42.676;23.320;2023-12-22T04:15:43;20.60;;;9.95;;
38399;SDS011;24180;42.676;23.320;2023-12-22T04:18:09;13.07;;;8.13;;
38399;SDS011;24180;42.676;23.320;2023-12-22T04:20:35;13.63;;;8.27;;
38399;SDS011;24180;42.676;23.320;2023-12-22T04:23:00;15.77;;;8.25;;
38399;SDS011;24180;42.676;23.320;2023-12-22T04:25:26;17.45;;;9.02;;
38399;SDS011;24180;42.676;23.320;2023-12-22T04:27:51;14.77;;;8.23;;
38399;SDS011;24180;42.676;23.320;2023-12-22T04:30:17;14.02;;;8.43;;
38399;SDS011;24180;42.676;23.320;2023-12-22T04:32:43;17.65;;;9.20;;
38399;SDS011;24180;42.676;23.320;2023-12-22T04:35:08;19.63;;;9.07;;
38399;SDS011;24180;42.676;23.320;2023-12-22T04:37:34;13.82;;;8.73;;
38399;SDS011;24180;42.676;23.320;2023-12-22T04:39:59;22.05;;;9.65;;
38399;SDS011;24180;42.676;23.320;2023-12-22T04:42:25;17.13;;;9.50;;
38399;SDS011;24180;42.676;23.320;2023-12-22T04:44:51;17.42;;;9.63;;
38399;SDS011;24180;42.676;23.320;2023-12-22T04:47:17;18.08;;;9.75;;
38399;SDS011;24180;42.676;23.320;2023-12-22T04:49:43;14.23;;;9.25;;
38399;SDS011;24180;42.676;23.320;2023-12-22T04:52:08;21.58;;;10.13;;
38399;SDS011;24180;42.676;23.320;2023-12-22T04:54:34;18.85;;;10.20;;
38399;SDS011;24180;42.676;23.320;2023-12-22T04:57:00;15.63;;;8.55;;
38399;SDS011;24180;42.676;23.320;2023-12-22T04:59:25;19.08;;;9.73;;
38399;SDS011;24180;42.676;23.320;2023-12-22T05:01:51;17.67;;;9.55;;
38399;SDS011;24180;42.676;23.320;2023-12-22T05:04:16;14.45;;;8.32;;
38399;SDS011;24180;42.676;23.320;2023-12-22T05:06:42;14.38;;;8.77;;
38399;SDS011;24180;42.676;23.320;2023-12-22T05:09:08;15.65;;;9.00;;
38399;SDS011;24180;42.676;23.320;2023-12-22T05:11:33;12.18;;;7.97;;
38399;SDS011;24180;42.676;23.320;2023-12-22T05:13:59;12.85;;;7.95;;
38399;SDS011;24180;42.676;23.320;2023-12-22T05:16:25;15.02;;;7.63;;
38399;SDS011;24180;42.676;23.320;2023-12-22T05:18:50;11.63;;;7.80;;
38399;SDS011;24180;42.676;23.320;2023-12-22T05:21:16;20.10;;;8.40;;
38399;SDS011;24180;42.676;23.320;2023-12-22T05:23:41;14.27;;;6.70;;
38399;SDS011;24180;42.676;23.320;2023-12-22T05:26:07;17.40;;;7.97;;
38399;SDS011;24180;42.676;23.320;2023-12-22T05:28:33;13.75;;;7.85;;
38399;SDS011;24180;42.676;23.320;2023-12-22T05:30:58;14.48;;;8.27;;
38399;SDS011;24180;42.676;23.320;2023-12-22T05:33:24;6.95;;;5.32;;
38399;SDS011;24180;42.676;23.320;2023-12-22T05:35:49;15.45;;;8.73;;
38399;SDS011;24180;42.676;23.320;2023-12-22T05:38:15;18.30;;;8.70;;
38399;SDS011;24180;42.676;23.320;2023-12-22T05:40:40;18.13;;;9.32;;
38399;SDS011;24180;42.676;23.320;2023-12-22T05:43:06;18.60;;;9.23;;
38399;SDS011;24180;42.676;23.320;2023-12-22T05:45:31;19.02;;;10.25;;
38399;SDS011;24180;42.676;23.320;2023-12-22T05:47:57;18.42;;;10.02;;
38399;SDS011;24180;42.676;23.320;2023-12-22T05:50:22;15.88;;;8.23;;
38399;SDS011;24180;42.676;23.320;2023-12-22T05:52:48;12.75;;;7.68;;
38399;SDS011;24180;42.676;23.320;2023-12-22T05:55:14;20.10;;;10.68;;
38399;SDS011;24180;42.676;23.320;2023-12-22T05:57:39;15.95;;;9.80;;
38399;SDS011;24180;42.676;23.320;2023-12-22T06:00:05;13.25;;;7.35;;
38399;SDS011;24180;42.676;23.320;2023-12-22T06:04:58;14.80;;;6.93;;
38399;SDS011;24180;42.676;23.320;2023-12-22T06:07:23;13.13;;;8.07;;
38399;SDS011;24180;42.676;23.320;2023-12-22T06:09:49;18.67;;;9.13;;
38399;SDS011;24180;42.676;23.320;2023-12-22T06:12:14;14.93;;;8.30;;
38399;SDS011;24180;42.676;23.320;2023-12-22T06:14:40;19.20;;;9.35;;
38399;SDS011;24180;42.676;23.320;2023-12-22T06:17:06;15.63;;;9.48;;
38399;SDS011;24180;42.676;23.320;2023-12-22T06:19:31;15.05;;;9.10;;
38399;SDS011;24180;42.676;23.320;2023-12-22T06:21:57;17.83;;;9.90;;
38399;SDS011;24180;42.676;23.320;2023-12-22T06:24:23;16.35;;;8.60;;
38399;SDS011;24180;42.676;23.320;2023-12-22T06:26:49;16.60;;;9.73;;
38399;SDS011;24180;42.676;23.320;2023-12-22T06:29:14;18.00;;;10.38;;
38399;SDS011;24180;42.676;23.320;2023-12-22T06:31:40;21.08;;;10.25;;
38399;SDS011;24180;42.676;23.320;2023-12-22T06:34:06;15.88;;;8.82;;
38399;SDS011;24180;42.676;23.320;2023-12-22T06:36:31;13.63;;;7.85;;
38399;SDS011;24180;42.676;23.320;2023-12-22T06:38:57;14.23;;;8.45;;
38399;SDS011;24180;42.676;23.320;2023-12-22T06:43:52;15.00;;;9.30;;
38399;SDS011;24180;42.676;23.320;2023-12-22T06:46:18;16.05;;;9.00;;
38399;SDS011;24180;42.676;23.320;2023-12-22T06:48:45;16.00;;;8.50;;
38399;SDS011;24180;42.676;23.320;2023-12-22T06:51:18;14.43;;;8.30;;
38399;SDS011;24180;42.676;23.320;2023-12-22T06:53:45;14.02;;;8.35;;
38399;SDS011;24180;42.676;23.320;2023-12-22T06:56:14;19.27;;;10.95;;
38399;SDS011;24180;42.676;23.320;2023-12-22T06:58:47;16.20;;;8.93;;
38399;SDS011;24180;42.676;23.320;2023-12-22T07:01:17;15.35;;;8.32;;
38399;SDS011;24180;42.676;23.320;2023-12-22T07:03:47;15.20;;;8.68;;
38399;SDS011;24180;42.676;23.320;2023-12-22T07:06:13;15.98;;;8.43;;
38399;SDS011;24180;42.676;23.320;2023-12-22T07:08:45;15.77;;;8.38;;
38399;SDS011;24180;42.676;23.320;2023-12-22T07:11:23;15.10;;;9.05;;
38399;SDS011;24180;42.676;23.320;2023-12-22T07:13:49;17.50;;;9.63;;
38399;SDS011;24180;42.676;23.320;2023-12-22T07:16:14;13.85;;;8.40;;
38399;SDS011;24180;42.676;23.320;2023-12-22T07:18:40;21.63;;;9.75;;
38399;SDS011;24180;42.676;23.320;2023-12-22T07:21:05;19.55;;;9.27;;
38399;SDS011;24180;42.676;23.320;2023-12-22T07:23:30;17.75;;;8.65;;
38399;SDS011;24180;42.676;23.320;2023-12-22T07:25:56;17.33;;;8.77;;
38399;SDS011;24180;42.676;23.320;2023-12-22T07:28:21;13.07;;;7.95;;
38399;SDS011;24180;42.676;23.320;2023-12-22T07:30:47;10.85;;;7.78;;
38399;SDS011;24180;42.676;23.320;2023-12-22T07:33:12;15.43;;;9.35;;
38399;SDS011;24180;42.676;23.320;2023-12-22T07:35:38;18.05;;;8.75;;
38399;SDS011;24180;42.676;23.320;2023-12-22T07:38:03;15.93;;;8.90;;
38399;SDS011;24180;42.676;23.320;2023-12-22T07:40:29;14.57;;;8.27;;
38399;SDS011;24180;42.676;23.320;2023-12-22T07:42:57;17.40;;;9.38;;
38399;SDS011;24180;42.676;23.320;2023-12-22T07:45:23;19.45;;;9.02;;
38399;SDS011;24180;42.676;23.320;2023-12-22T07:47:48;16.33;;;9.32;;
38399;SDS011;24180;42.676;23.320;2023-12-22T07:50:14;19.02;;;9.93;;
38399;SDS011;24180;42.676;23.320;2023-12-22T07:52:40;18.17;;;9.60;;
38399;SDS011;24180;42.676;23.320;2023-12-22T07:55:06;18.02;;;9.80;;
38399;SDS011;24180;42.676;23.320;2023-12-22T07:57:34;16.40;;;9.02;;
38399;SDS011;24180;42.676;23.320;2023-12-22T08:00:00;33.10;;;15.85;;
38399;SDS011;24180;42.676;23.320;2023-12-22T08:02:26;24.15;;;11.50;;
38399;SDS011;24180;42.676;23.320;2023-12-22T08:04:51;22.25;;;11.52;;
38399;SDS011;24180;42.676;23.320;2023-12-22T08:07:16;20.35;;;10.75;;
38399;SDS011;24180;42.676;23.320;2023-12-22T08:09:42;15.98;;;8.30;;
38399;SDS011;24180;42.676;23.320;2023-12-22T08:12:07;24.65;;;10.77;;
38399;SDS011;24180;42.676;23.320;2023-12-22T08:14:33;21.75;;;10.60;;
38399;SDS011;24180;42.676;23.320;2023-12-22T08:16:58;21.52;;;11.07;;
38399;SDS011;24180;42.676;23.320;2023-12-22T08:19:24;21.13;;;10.68;;
38399;SDS011;24180;42.676;23.320;2023-12-22T08:21:52;23.85;;;11.68;;
38399;SDS011;24180;42.676;23.320;2023-12-22T08:24:18;27.30;;;12.80;;
38399;SDS011;24180;42.676;23.320;2023-12-22T08:26:44;18.85;;;10.70;;
38399;SDS011;24180;42.676;23.320;2023-12-22T08:29:09;31.10;;;12.13;;
38399;SDS011;24180;42.676;23.320;2023-12-22T08:31:35;22.10;;;12.20;;
38399;SDS011;24180;42.676;23.320;2023-12-22T08:34:00;17.42;;;11.23;;
38399;SDS011;24180;42.676;23.320;2023-12-22T08:36:26;25.35;;;13.40;;
38399;SDS011;24180;42.676;23.320;2023-12-22T08:38:51;26.85;;;13.77;;
38399;SDS011;24180;42.676;23.320;2023-12-22T08:41:17;20.38;;;11.10;;
38399;SDS011;24180;42.676;23.320;2023-12-22T08:43:42;17.98;;;9.82;;
38399;SDS011;24180;42.676;23.320;2023-12-22T08:46:08;24.17;;;13.02;;
38399;SDS011;24180;42.676;23.320;2023-12-22T08:48:35;21.77;;;11.10;;
38399;SDS011;24180;42.676;23.320;2023-12-22T08:51:00;24.55;;;11.70;;
38399;SDS011;24180;42.676;23.320;2023-12-22T08:53:26;23.83;;;12.57;;
38399;SDS011;24180;42.676;23.320;2023-12-22T08:55:55;18.05;;;10.88;;
38399;SDS011;24180;42.676;23.320;2023-12-22T08:58:21;19.85;;;10.77;;
38399;SDS011;24180;42.676;23.320;2023-12-22T09:00:47;20.52;;;10.85;;
38399;SDS011;24180;42.676;23.320;2023-12-22T09:03:12;19.70;;;10.80;;
38399;SDS011;24180;42.676;23.320;2023-12-22T09:05:38;22.52;;;11.48;;
38399;SDS011;24180;42.676;23.320;2023-12-22T09:08:04;20.80;;;11.40;;
38399;SDS011;24180;42.676;23.320;2023-12-22T09:10:31;20.67;;;11.57;;
38399;SDS011;24180;42.676;23.320;2023-12-22T09:12:57;21.42;;;11.50;;
38399;SDS011;24180;42.676;23.320;2023-12-22T09:15:23;17.52;;;10.13;;
38399;SDS011;24180;42.676;23.320;2023-12-22T09:17:48;23.98;;;12.15;;
38399;SDS011;24180;42.676;23.320;2023-12-22T09:20:14;26.23;;;13.73;;
38399;SDS011;24180;42.676;23.320;2023-12-22T09:22:40;24.23;;;12.13;;
38399;SDS011;24180;42.676;23.320;2023-12-22T09:25:05;28.65;;;13.73;;
38399;SDS011;24180;42.676;23.320;2023-12-22T09:27:31;28.55;;;14.27;;
38399;SDS011;24180;42.676;23.320;2023-12-22T09:29:57;23.95;;;13.77;;
38399;SDS011;24180;42.676;23.320;2023-12-22T09:32:22;20.52;;;10.68;;
38399;SDS011;24180;42.676;23.320;2023-12-22T09:34:47;26.85;;;12.80;;
38399;SDS011;24180;42.676;23.320;2023-12-22T09:37:13;21.92;;;11.98;;
38399;SDS011;24180;42.676;23.320;2023-12-22T09:39:39;22.27;;;13.38;;
38399;SDS011;24180;42.676;23.320;2023-12-22T09:42:05;24.67;;;14.57;;
38399;SDS011;24180;42.676;23.320;2023-12-22T09:44:31;26.30;;;13.52;;
38399;SDS011;24180;42.676;23.320;2023-12-22T09:46:59;25.20;;;12.50;;
38399;SDS011;24180;42.676;23.320;2023-12-22T09:49:26;23.98;;;13.00;;
38399;SDS011;24180;42.676;23.320;2023-12-22T09:51:52;27.92;;;14.13;;
38399;SDS011;24180;42.676;23.320;2023-12-22T09:54:19;20.60;;;11.43;;
38399;SDS011;24180;42.676;23.320;2023-12-22T09:56:45;28.50;;;12.07;;
38399;SDS011;24180;42.676;23.320;2023-12-22T09:59:12;22.38;;;11.68;;
38399;SDS011;24180;42.676;23.320;2023-12-22T10:01:44;22.60;;;11.23;;
38399;SDS011;24180;42.676;23.320;2023-12-22T10:04:11;28.45;;;12.68;;
38399;SDS011;24180;42.676;23.320;2023-12-22T10:06:39;28.98;;;13.25;;
38399;SDS011;24180;42.676;23.320;2023-12-22T10:11:34;21.02;;;10.70;;
38399;SDS011;24180;42.676;23.320;2023-12-22T10:14:01;19.25;;;11.65;;
38399;SDS011;24180;42.676;23.320;2023-12-22T10:16:28;23.65;;;11.98;;
38399;SDS011;24180;42.676;23.320;2023-12-22T10:18:53;26.85;;;13.63;;
38399;SDS011;24180;42.676;23.320;2023-12-22T10:21:19;29.88;;;14.95;;
38399;SDS011;24180;42.676;23.320;2023-12-22T10:23:45;20.95;;;12.32;;
38399;SDS011;24180;42.676;23.320;2023-12-22T10:26:13;22.38;;;12.85;;
38399;SDS011;24180;42.676;23.320;2023-12-22T10:28:40;20.45;;;12.25;;
38399;SDS011;24180;42.676;23.320;2023-12-22T10:31:06;20.95;;;12.32;;
38399;SDS011;24180;42.676;23.320;2023-12-22T10:33:32;22.38;;;11.70;;
38399;SDS011;24180;42.676;23.320;2023-12-22T10:35:58;22.60;;;11.68;;
38399;SDS011;24180;42.676;23.320;2023-12-22T10:38:25;18.42;;;11.20;;
38399;SDS011;24180;42.676;23.320;2023-12-22T10:40:52;17.33;;;10.45;;
38399;SDS011;24180;42.676;23.320;2023-12-22T10:43:18;20.15;;;10.80;;
38399;SDS011;24180;42.676;23.320;2023-12-22T10:45:43;12.32;;;8.02;;
38399;SDS011;24180;42.676;23.320;2023-12-22T10:48:10;13.95;;;8.43;;
38399;SDS011;24180;42.676;23.320;2023-12-22T10:50:35;9.88;;;7.15;;
38399;SDS011;24180;42.676;23.320;2023-12-22T10:53:01;7.57;;;6.45;;
38399;SDS011;24180;42.676;23.320;2023-12-22T10:55:30;6.93;;;6.32;;
38399;SDS011;24180;42.676;23.320;2023-12-22T10:57:56;5.70;;;5.15;;
38399;SDS011;24180;42.676;23.320;2023-12-22T11:00:21;5.65;;;5.15;;
38399;SDS011;24180;42.676;23.320;2023-12-22T11:02:48;7.55;;;5.72;;
38399;SDS011;24180;42.676;23.320;2023-12-22T11:05:17;7.65;;;5.15;;
38399;SDS011;24180;42.676;23.320;2023-12-22T11:07:47;6.53;;;4.47;;
38399;SDS011;24180;42.676;23.320;2023-12-22T11:10:14;8.15;;;5.28;;
38399;SDS011;24180;42.676;23.320;2023-12-22T11:12:45;4.60;;;4.25;;
38399;SDS011;24180;42.676;23.320;2023-12-22T11:15:12;4.30;;;3.83;;
38399;SDS011;24180;42.676;23.320;2023-12-22T11:17:39;8.48;;;4.53;;
38399;SDS011;24180;42.676;23.320;2023-12-22T11:20:08;5.35;;;4.20;;
38399;SDS011;24180;42.676;23.320;2023-12-22T11:22:35;8.48;;;4.55;;
38399;SDS011;24180;42.676;23.320;2023-12-22T11:25:02;5.97;;;5.40;;
38399;SDS011;24180;42.676;23.320;2023-12-22T11:27:28;5.90;;;5.28;;
38399;SDS011;24180;42.676;23.320;2023-12-22T11:29:54;8.20;;;5.55;;
38399;SDS011;24180;42.676;23.320;2023-12-22T11:32:20;10.45;;;6.13;;
38399;SDS011;24180;42.676;23.320;2023-12-22T11:34:46;5.80;;;4.05;;
38399;SDS011;24180;42.676;23.320;2023-12-22T11:37:12;4.35;;;3.63;;
38399;SDS011;24180;42.676;23.320;2023-12-22T11:39:40;3.42;;;2.92;;
38399;SDS011;24180;42.676;23.320;2023-12-22T11:42:07;1.73;;;1.63;;
38399;SDS011;24180;42.676;23.320;2023-12-22T11:44:36;1.80;;;1.23;;
38399;SDS011;24180;42.676;23.320;2023-12-22T11:47:05;1.35;;;1.25;;
38399;SDS011;24180;42.676;23.320;2023-12-22T11:49:32;1.98;;;1.27;;
38399;SDS011;24180;42.676;23.320;2023-12-22T11:52:11;1.52;;;1.20;;
38399;SDS011;24180;42.676;23.320;2023-12-22T11:59:59;1.02;;;0.95;;
38399;SDS011;24180;42.676;23.320;2023-12-22T12:02:29;0.85;;;0.85;;
38399;SDS011;24180;42.676;23.320;2023-12-22T12:04:57;1.25;;;0.63;;
38399;SDS011;24180;42.676;23.320;2023-12-22T12:07:36;1.98;;;0.95;;
38399;SDS011;24180;42.676;23.320;2023-12-22T12:13:06;1.52;;;1.40;;
38399;SDS011;24180;42.676;23.320;2023-12-22T12:15:36;1.27;;;1.17;;
38399;SDS011;24180;42.676;23.320;2023-12-22T12:18:02;0.95;;;0.93;;
38399;SDS011;24180;42.676;23.320;2023-12-22T12:20:28;1.00;;;1.00;;
38399;SDS011;24180;42.676;23.320;2023-12-22T12:22:54;0.70;;;0.70;;
38399;SDS011;24180;42.676;23.320;2023-12-22T12:25:21;0.65;;;0.65;;
38399;SDS011;24180;42.676;23.320;2023-12-22T12:27:50;0.68;;;0.68;;
38399;SDS011;24180;42.676;23.320;2023-12-22T12:30:35;1.17;;;0.70;;
38399;SDS011;24180;42.676;23.320;2023-12-22T12:33:08;1.00;;;0.90;;
38399;SDS011;24180;42.676;23.320;2023-12-22T12:35:35;0.90;;;0.75;;
38399;SDS011;24180;42.676;23.320;2023-12-22T12:38:02;0.82;;;0.82;;
38399;SDS011;24180;42.676;23.320;2023-12-22T12:40:28;1.38;;;0.70;;
38399;SDS011;24180;42.676;23.320;2023-12-22T12:45:24;0.82;;;0.82;;
38399;SDS011;24180;42.676;23.320;2023-12-22T12:47:57;1.00;;;1.00;;
38399;SDS011;24180;42.676;23.320;2023-12-22T12:50:28;1.00;;;0.90;;
38399;SDS011;24180;42.676;23.320;2023-12-22T12:52:56;0.80;;;0.80;;
38399;SDS011;24180;42.676;23.320;2023-12-22T12:55:23;0.93;;;0.90;;
38399;SDS011;24180;42.676;23.320;2023-12-22T12:57:50;0.90;;;0.90;;
38399;SDS011;24180;42.676;23.320;2023-12-22T13:02:54;0.70;;;0.70;;
38399;SDS011;24180;42.676;23.320;2023-12-22T13:05:22;0.73;;;0.63;;
38399;SDS011;24180;42.676;23.320;2023-12-22T13:07:48;1.05;;;0.75;;
38399;SDS011;24180;42.676;23.320;2023-12-22T13:12:57;0.82;;;0.82;;
38399;SDS011;24180;42.676;23.320;2023-12-22T13:15:24;1.15;;;0.80;;
38399;SDS011;24180;42.676;23.320;2023-12-22T13:17:49;1.00;;;1.00;;
38399;SDS011;24180;42.676;23.320;2023-12-22T13:20:15;1.05;;;1.05;;
38399;SDS011;24180;42.676;23.320;2023-12-22T13:22:41;1.35;;;1.25;;
38399;SDS011;24180;42.676;23.320;2023-12-22T13:25:07;1.27;;;1.17;;
38399;SDS011;24180;42.676;23.320;2023-12-22T13:27:43;1.15;;;1.10;;
38399;SDS011;24180;42.676;23.320;2023-12-22T13:30:10;0.88;;;0.88;;
38399;SDS011;24180;42.676;23.320;2023-12-22T13:32:35;1.65;;;1.55;;
38399;SDS011;24180;42.676;23.320;2023-12-22T13:35:02;1.80;;;1.40;;
38399;SDS011;24180;42.676;23.320;2023-12-22T13:37:28;1.63;;;1.52;;
38399;SDS011;24180;42.676;23.320;2023-12-22T13:39:55;1.73;;;1.35;;
38399;SDS011;24180;42.676;23.320;2023-12-22T13:44:49;1.05;;;1.05;;
38399;SDS011;24180;42.676;23.320;2023-12-22T13:47:18;1.35;;;1.23;;
38399;SDS011;24180;42.676;23.320;2023-12-22T13:49:47;3.72;;;1.75;;
38399;SDS011;24180;42.676;23.320;2023-12-22T13:52:29;1.02;;;1.02;;
38399;SDS011;24180;42.676;23.320;2023-12-22T13:54:57;1.50;;;1.40;;
38399;SDS011;24180;42.676;23.320;2023-12-22T13:57:26;1.20;;;1.05;;
38399;SDS011;24180;42.676;23.320;2023-12-22T13:59:51;1.58;;;1.48;;
38399;SDS011;24180;42.676;23.320;2023-12-22T14:02:19;1.25;;;1.25;;
38399;SDS011;24180;42.676;23.320;2023-12-22T14:04:45;1.30;;;1.20;;
38399;SDS011;24180;42.676;23.320;2023-12-22T14:07:11;1.40;;;1.30;;
38399;SDS011;24180;42.676;23.320;2023-12-22T14:09:36;1.65;;;1.55;;
38399;SDS011;24180;42.676;23.320;2023-12-22T14:12:03;0.98;;;0.90;;
38399;SDS011;24180;42.676;23.320;2023-12-22T14:14:30;1.15;;;1.10;;
38399;SDS011;24180;42.676;23.320;2023-12-22T14:16:56;4.75;;;0.98;;
38399;SDS011;24180;42.676;23.320;2023-12-22T14:19:22;1.33;;;1.08;;
38399;SDS011;24180;42.676;23.320;2023-12-22T14:21:47;1.23;;;1.13;;
38399;SDS011;24180;42.676;23.320;2023-12-22T14:24:13;0.73;;;0.73;;
38399;SDS011;24180;42.676;23.320;2023-12-22T14:26:54;0.90;;;0.90;;
38399;SDS011;24180;42.676;23.320;2023-12-22T14:29:21;0.95;;;0.95;;
38399;SDS011;24180;42.676;23.320;2023-12-22T14:31:49;0.88;;;0.88;;
38399;SDS011;24180;42.676;23.320;2023-12-22T14:34:16;4.88;;;1.38;;
38399;SDS011;24180;42.676;23.320;2023-12-22T14:36:42;1.15;;;0.93;;
38399;SDS011;24180;42.676;23.320;2023-12-22T14:39:08;1.30;;;1.20;;
38399;SDS011;24180;42.676;23.320;2023-12-22T14:41:35;0.75;;;0.75;;
38399;SDS011;24180;42.676;23.320;2023-12-22T14:44:01;1.10;;;1.10;;
38399;SDS011;24180;42.676;23.320;2023-12-22T14:46:26;1.17;;;1.10;;